sensor_id;sensor_type;location;lat;lon;timestamp;P1;durP1;ratioP1;P2;durP2;ratioP2
6376;SDS011;3221;48.858;10.128;2022-09-30T01:18:28;1.57;;;1.47;;
6376;SDS011;3221;48.858;10.128;2022-09-30T01:21:25;1.30;;;1.20;;
6376;SDS011;3221;48.858;10.128;2022-09-30T01:35:24;2.47;;;1.50;;
6376;SDS011;3221;48.858;10.128;2022-09-30T01:38:12;2.77;;;1.57;;
6376;SDS011;3221;48.858;10.128;2022-09-30T01:41:04;1.73;;;1.50;;
6376;SDS011;3221;48.858;10.128;2022-09-30T01:46:45;1.83;;;1.70;;
6376;SDS011;3221;48.858;10.128;2022-09-30T01:51:54;1.50;;;1.40;;
6376;SDS011;3221;48.858;10.128;2022-09-30T01:54:39;1.87;;;1.40;;
6376;SDS011;3221;48.858;10.128;2022-09-30T02:00:08;1.90;;;1.47;;
6376;SDS011;3221;48.858;10.128;2022-09-30T02:02:44;3.13;;;1.60;;
6376;SDS011;3221;48.858;10.128;2022-09-30T02:05:27;2.47;;;1.60;;
6376;SDS011;3221;48.858;10.128;2022-09-30T02:08:03;2.07;;;1.80;;
6376;SDS011;3221;48.858;10.128;2022-09-30T02:10:43;1.50;;;1.40;;
6376;SDS011;3221;48.858;10.128;2022-09-30T02:13:16;1.70;;;1.60;;
6376;SDS011;3221;48.858;10.128;2022-09-30T02:15:51;2.43;;;1.50;;
6376;SDS011;3221;48.858;10.128;2022-09-30T02:18:26;2.77;;;1.67;;
6376;SDS011;3221;48.858;10.128;2022-09-30T02:21:00;1.73;;;1.50;;
6376;SDS011;3221;48.858;10.128;2022-09-30T02:23:30;3.20;;;1.50;;
6376;SDS011;3221;48.858;10.128;2022-09-30T02:26:05;1.53;;;1.43;;
6376;SDS011;3221;48.858;10.128;2022-09-30T02:28:37;1.80;;;1.60;;
6376;SDS011;3221;48.858;10.128;2022-09-30T02:31:09;1.80;;;1.70;;
6376;SDS011;3221;48.858;10.128;2022-09-30T02:33:41;2.03;;;1.80;;
6376;SDS011;3221;48.858;10.128;2022-09-30T02:36:16;2.10;;;1.90;;
6376;SDS011;3221;48.858;10.128;2022-09-30T02:39:03;1.60;;;1.50;;
6376;SDS011;3221;48.858;10.128;2022-09-30T02:41:43;1.70;;;1.60;;
6376;SDS011;3221;48.858;10.128;2022-09-30T02:44:17;2.17;;;1.63;;
6376;SDS011;3221;48.858;10.128;2022-09-30T02:49:42;3.13;;;1.40;;
6376;SDS011;3221;48.858;10.128;2022-09-30T02:55:01;1.93;;;1.60;;
6376;SDS011;3221;48.858;10.128;2022-09-30T03:00:30;1.83;;;1.70;;
6376;SDS011;3221;48.858;10.128;2022-09-30T03:03:04;1.93;;;1.70;;
6376;SDS011;3221;48.858;10.128;2022-09-30T03:05:45;4.23;;;2.00;;
6376;SDS011;3221;48.858;10.128;2022-09-30T03:08:14;3.47;;;2.07;;
6376;SDS011;3221;48.858;10.128;2022-09-30T03:10:41;2.20;;;2.00;;
6376;SDS011;3221;48.858;10.128;2022-09-30T03:15:59;4.90;;;2.10;;
6376;SDS011;3221;48.858;10.128;2022-09-30T03:32:51;3.67;;;3.07;;
6376;SDS011;3221;48.858;10.128;2022-09-30T03:38:44;4.93;;;3.90;;
6376;SDS011;3221;48.858;10.128;2022-09-30T03:44:15;4.20;;;3.77;;
6376;SDS011;3221;48.858;10.128;2022-09-30T03:46:59;3.83;;;3.43;;
6376;SDS011;3221;48.858;10.128;2022-09-30T03:49:34;4.17;;;3.10;;
6376;SDS011;3221;48.858;10.128;2022-09-30T03:52:07;3.37;;;3.00;;
6376;SDS011;3221;48.858;10.128;2022-09-30T03:54:48;3.57;;;2.80;;
6376;SDS011;3221;48.858;10.128;2022-09-30T03:57:20;2.70;;;2.50;;
6376;SDS011;3221;48.858;10.128;2022-09-30T03:59:47;3.27;;;2.50;;
6376;SDS011;3221;48.858;10.128;2022-09-30T04:02:14;3.53;;;2.67;;
6376;SDS011;3221;48.858;10.128;2022-09-30T04:04:41;3.37;;;2.40;;
6376;SDS011;3221;48.858;10.128;2022-09-30T04:07:08;2.80;;;2.30;;
6376;SDS011;3221;48.858;10.128;2022-09-30T04:09:36;2.80;;;2.23;;
6376;SDS011;3221;48.858;10.128;2022-09-30T04:12:06;3.80;;;2.40;;
6376;SDS011;3221;48.858;10.128;2022-09-30T04:14:33;2.20;;;1.87;;
6376;SDS011;3221;48.858;10.128;2022-09-30T04:17:04;2.20;;;2.00;;
6376;SDS011;3221;48.858;10.128;2022-09-30T04:19:31;2.17;;;1.97;;
6376;SDS011;3221;48.858;10.128;2022-09-30T04:22:03;2.40;;;2.10;;
6376;SDS011;3221;48.858;10.128;2022-09-30T04:24:30;2.10;;;1.90;;
6376;SDS011;3221;48.858;10.128;2022-09-30T04:26:57;3.23;;;2.20;;
6376;SDS011;3221;48.858;10.128;2022-09-30T04:29:24;2.20;;;2.00;;
6376;SDS011;3221;48.858;10.128;2022-09-30T04:31:51;2.23;;;2.00;;
6376;SDS011;3221;48.858;10.128;2022-09-30T04:34:18;3.33;;;2.00;;
6376;SDS011;3221;48.858;10.128;2022-09-30T04:36:44;2.13;;;2.00;;
6376;SDS011;3221;48.858;10.128;2022-09-30T04:39:11;4.27;;;2.27;;
6376;SDS011;3221;48.858;10.128;2022-09-30T04:41:38;4.33;;;2.17;;
6376;SDS011;3221;48.858;10.128;2022-09-30T04:44:06;2.73;;;2.07;;
6376;SDS011;3221;48.858;10.128;2022-09-30T04:46:33;2.47;;;2.27;;
6376;SDS011;3221;48.858;10.128;2022-09-30T04:49:02;2.30;;;2.10;;
6376;SDS011;3221;48.858;10.128;2022-09-30T04:51:34;2.60;;;2.30;;
6376;SDS011;3221;48.858;10.128;2022-09-30T04:54:01;3.90;;;3.27;;
6376;SDS011;3221;48.858;10.128;2022-09-30T04:56:28;9.43;;;4.93;;
6376;SDS011;3221;48.858;10.128;2022-09-30T04:58:55;9.87;;;7.03;;
6376;SDS011;3221;48.858;10.128;2022-09-30T05:01:22;11.13;;;7.20;;
6376;SDS011;3221;48.858;10.128;2022-09-30T05:03:49;11.83;;;8.17;;
6376;SDS011;3221;48.858;10.128;2022-09-30T05:06:16;12.37;;;8.13;;
6376;SDS011;3221;48.858;10.128;2022-09-30T05:08:43;12.43;;;8.63;;
6376;SDS011;3221;48.858;10.128;2022-09-30T05:11:18;9.77;;;7.07;;
6376;SDS011;3221;48.858;10.128;2022-09-30T05:13:46;8.37;;;6.67;;
6376;SDS011;3221;48.858;10.128;2022-09-30T05:16:14;9.60;;;6.33;;
6376;SDS011;3221;48.858;10.128;2022-09-30T05:18:42;6.60;;;5.10;;
6376;SDS011;3221;48.858;10.128;2022-09-30T05:21:12;4.80;;;4.40;;
6376;SDS011;3221;48.858;10.128;2022-09-30T05:23:40;5.00;;;4.10;;
6376;SDS011;3221;48.858;10.128;2022-09-30T05:26:07;5.03;;;4.17;;
6376;SDS011;3221;48.858;10.128;2022-09-30T05:28:38;5.57;;;3.80;;
6376;SDS011;3221;48.858;10.128;2022-09-30T05:31:06;4.33;;;3.77;;
6376;SDS011;3221;48.858;10.128;2022-09-30T05:33:33;5.27;;;4.53;;
6376;SDS011;3221;48.858;10.128;2022-09-30T05:36:03;7.03;;;5.00;;
6376;SDS011;3221;48.858;10.128;2022-09-30T05:38:32;5.27;;;4.50;;
6376;SDS011;3221;48.858;10.128;2022-09-30T05:41:04;5.00;;;4.50;;
6376;SDS011;3221;48.858;10.128;2022-09-30T05:43:40;4.97;;;4.30;;
6376;SDS011;3221;48.858;10.128;2022-09-30T05:46:10;5.93;;;5.07;;
6376;SDS011;3221;48.858;10.128;2022-09-30T05:48:37;6.40;;;5.50;;
6376;SDS011;3221;48.858;10.128;2022-09-30T05:51:04;5.90;;;5.10;;
6376;SDS011;3221;48.858;10.128;2022-09-30T05:53:34;5.77;;;5.20;;
6376;SDS011;3221;48.858;10.128;2022-09-30T05:56:04;5.87;;;5.33;;
6376;SDS011;3221;48.858;10.128;2022-09-30T05:58:32;5.97;;;5.03;;
6376;SDS011;3221;48.858;10.128;2022-09-30T06:01:06;5.03;;;4.53;;
6376;SDS011;3221;48.858;10.128;2022-09-30T06:03:39;6.30;;;4.93;;
6376;SDS011;3221;48.858;10.128;2022-09-30T06:06:07;4.83;;;4.33;;
6376;SDS011;3221;48.858;10.128;2022-09-30T06:08:34;4.97;;;4.47;;
6376;SDS011;3221;48.858;10.128;2022-09-30T06:11:01;5.03;;;4.53;;
6376;SDS011;3221;48.858;10.128;2022-09-30T06:13:37;5.87;;;4.63;;
6376;SDS011;3221;48.858;10.128;2022-09-30T06:16:05;5.73;;;4.33;;
6376;SDS011;3221;48.858;10.128;2022-09-30T06:18:33;4.47;;;4.07;;
6376;SDS011;3221;48.858;10.128;2022-09-30T06:21:02;6.13;;;3.90;;
6376;SDS011;3221;48.858;10.128;2022-09-30T06:23:30;4.00;;;3.60;;
6376;SDS011;3221;48.858;10.128;2022-09-30T06:26:00;4.10;;;3.70;;
6376;SDS011;3221;48.858;10.128;2022-09-30T06:28:29;3.97;;;3.57;;
6376;SDS011;3221;48.858;10.128;2022-09-30T06:30:56;3.70;;;3.40;;
6376;SDS011;3221;48.858;10.128;2022-09-30T06:33:22;3.97;;;3.40;;
6376;SDS011;3221;48.858;10.128;2022-09-30T06:35:49;4.10;;;3.70;;
6376;SDS011;3221;48.858;10.128;2022-09-30T06:38:16;5.23;;;3.80;;
6376;SDS011;3221;48.858;10.128;2022-09-30T06:40:43;4.00;;;3.60;;
6376;SDS011;3221;48.858;10.128;2022-09-30T06:43:17;4.40;;;3.60;;
6376;SDS011;3221;48.858;10.128;2022-09-30T06:45:45;3.53;;;3.23;;
6376;SDS011;3221;48.858;10.128;2022-09-30T06:48:13;4.37;;;3.07;;
6376;SDS011;3221;48.858;10.128;2022-09-30T06:50:46;3.67;;;2.90;;
6376;SDS011;3221;48.858;10.128;2022-09-30T06:53:26;3.90;;;3.07;;
6376;SDS011;3221;48.858;10.128;2022-09-30T06:55:56;5.93;;;3.43;;
6376;SDS011;3221;48.858;10.128;2022-09-30T06:58:23;3.40;;;3.10;;
6376;SDS011;3221;48.858;10.128;2022-09-30T07:01:00;4.40;;;3.60;;
6376;SDS011;3221;48.858;10.128;2022-09-30T07:03:32;5.23;;;4.30;;
6376;SDS011;3221;48.858;10.128;2022-09-30T07:06:01;4.30;;;3.90;;
6376;SDS011;3221;48.858;10.128;2022-09-30T07:08:30;5.00;;;4.13;;
6376;SDS011;3221;48.858;10.128;2022-09-30T07:11:04;6.77;;;4.33;;
6376;SDS011;3221;48.858;10.128;2022-09-30T07:13:42;7.70;;;6.13;;
6376;SDS011;3221;48.858;10.128;2022-09-30T07:16:15;5.77;;;4.37;;
6376;SDS011;3221;48.858;10.128;2022-09-30T07:18:44;5.60;;;4.83;;
6376;SDS011;3221;48.858;10.128;2022-09-30T07:21:12;5.33;;;4.77;;
6376;SDS011;3221;48.858;10.128;2022-09-30T07:23:44;5.57;;;4.70;;
6376;SDS011;3221;48.858;10.128;2022-09-30T07:26:15;5.40;;;4.17;;
6376;SDS011;3221;48.858;10.128;2022-09-30T07:28:44;6.00;;;4.67;;
6376;SDS011;3221;48.858;10.128;2022-09-30T07:31:15;5.53;;;4.33;;
6376;SDS011;3221;48.858;10.128;2022-09-30T07:33:58;5.67;;;4.23;;
6376;SDS011;3221;48.858;10.128;2022-09-30T07:36:25;5.63;;;4.53;;
6376;SDS011;3221;48.858;10.128;2022-09-30T07:38:59;5.03;;;3.83;;
6376;SDS011;3221;48.858;10.128;2022-09-30T07:41:34;5.17;;;3.63;;
6376;SDS011;3221;48.858;10.128;2022-09-30T07:44:03;4.10;;;3.50;;
6376;SDS011;3221;48.858;10.128;2022-09-30T07:46:32;8.00;;;3.63;;
6376;SDS011;3221;48.858;10.128;2022-09-30T07:49:00;5.20;;;3.73;;
6376;SDS011;3221;48.858;10.128;2022-09-30T07:51:32;6.10;;;3.97;;
6376;SDS011;3221;48.858;10.128;2022-09-30T07:54:02;4.33;;;3.83;;
6376;SDS011;3221;48.858;10.128;2022-09-30T07:56:39;5.30;;;3.93;;
6376;SDS011;3221;48.858;10.128;2022-09-30T07:59:29;5.60;;;4.47;;
6376;SDS011;3221;48.858;10.128;2022-09-30T08:01:57;4.27;;;3.57;;
6376;SDS011;3221;48.858;10.128;2022-09-30T08:04:24;4.33;;;3.43;;
6376;SDS011;3221;48.858;10.128;2022-09-30T08:06:56;3.63;;;3.07;;
6376;SDS011;3221;48.858;10.128;2022-09-30T08:09:26;3.97;;;3.17;;
6376;SDS011;3221;48.858;10.128;2022-09-30T08:11:55;5.27;;;3.60;;
6376;SDS011;3221;48.858;10.128;2022-09-30T08:14:23;4.00;;;3.60;;
6376;SDS011;3221;48.858;10.128;2022-09-30T08:16:51;3.83;;;3.07;;
6376;SDS011;3221;48.858;10.128;2022-09-30T08:19:20;4.33;;;3.27;;
6376;SDS011;3221;48.858;10.128;2022-09-30T08:21:48;4.07;;;3.37;;
6376;SDS011;3221;48.858;10.128;2022-09-30T08:24:16;3.60;;;3.00;;
6376;SDS011;3221;48.858;10.128;2022-09-30T08:26:43;3.73;;;2.97;;
6376;SDS011;3221;48.858;10.128;2022-09-30T08:29:10;3.77;;;3.03;;
6376;SDS011;3221;48.858;10.128;2022-09-30T08:31:50;3.50;;;3.13;;
6376;SDS011;3221;48.858;10.128;2022-09-30T08:34:18;3.57;;;2.90;;
6376;SDS011;3221;48.858;10.128;2022-09-30T08:36:45;3.53;;;2.93;;
6376;SDS011;3221;48.858;10.128;2022-09-30T08:39:12;4.60;;;3.10;;
6376;SDS011;3221;48.858;10.128;2022-09-30T08:41:51;4.13;;;3.23;;
6376;SDS011;3221;48.858;10.128;2022-09-30T08:52:46;10.23;;;7.10;;
6376;SDS011;3221;48.858;10.128;2022-09-30T08:55:24;11.43;;;7.37;;
6376;SDS011;3221;48.858;10.128;2022-09-30T08:57:56;9.70;;;7.17;;
6376;SDS011;3221;48.858;10.128;2022-09-30T09:00:23;7.97;;;6.40;;
6376;SDS011;3221;48.858;10.128;2022-09-30T09:02:52;9.23;;;7.43;;
6376;SDS011;3221;48.858;10.128;2022-09-30T09:05:44;9.17;;;6.60;;
6376;SDS011;3221;48.858;10.128;2022-09-30T09:11:17;12.77;;;7.73;;
6376;SDS011;3221;48.858;10.128;2022-09-30T09:13:57;9.60;;;6.57;;
6376;SDS011;3221;48.858;10.128;2022-09-30T09:16:33;8.33;;;6.37;;
6376;SDS011;3221;48.858;10.128;2022-09-30T09:19:18;14.10;;;6.73;;
6376;SDS011;3221;48.858;10.128;2022-09-30T09:24:23;8.30;;;6.50;;
6376;SDS011;3221;48.858;10.128;2022-09-30T09:26:52;8.80;;;6.70;;
6376;SDS011;3221;48.858;10.128;2022-09-30T09:29:35;8.87;;;6.77;;
6376;SDS011;3221;48.858;10.128;2022-09-30T09:32:14;8.13;;;6.80;;
6376;SDS011;3221;48.858;10.128;2022-09-30T09:34:43;11.17;;;7.80;;
6376;SDS011;3221;48.858;10.128;2022-09-30T09:37:22;7.43;;;6.57;;
6376;SDS011;3221;48.858;10.128;2022-09-30T09:46:29;9.77;;;7.37;;
6376;SDS011;3221;48.858;10.128;2022-09-30T09:54:42;8.73;;;7.30;;
6376;SDS011;3221;48.858;10.128;2022-09-30T09:57:11;10.07;;;7.20;;
6376;SDS011;3221;48.858;10.128;2022-09-30T10:02:58;11.30;;;8.83;;
6376;SDS011;3221;48.858;10.128;2022-09-30T10:05:30;8.70;;;7.10;;
6376;SDS011;3221;48.858;10.128;2022-09-30T10:08:13;8.40;;;7.10;;
6376;SDS011;3221;48.858;10.128;2022-09-30T10:13:14;9.37;;;7.27;;
6376;SDS011;3221;48.858;10.128;2022-09-30T10:15:43;10.07;;;7.20;;
6376;SDS011;3221;48.858;10.128;2022-09-30T10:18:18;9.60;;;7.70;;
6376;SDS011;3221;48.858;10.128;2022-09-30T10:20:52;9.43;;;7.27;;
6376;SDS011;3221;48.858;10.128;2022-09-30T10:23:25;8.50;;;7.00;;
6376;SDS011;3221;48.858;10.128;2022-09-30T10:25:58;9.10;;;6.87;;
6376;SDS011;3221;48.858;10.128;2022-09-30T10:28:31;9.93;;;7.57;;
6376;SDS011;3221;48.858;10.128;2022-09-30T10:31:06;10.87;;;7.57;;
6376;SDS011;3221;48.858;10.128;2022-09-30T10:36:39;9.07;;;6.90;;
6376;SDS011;3221;48.858;10.128;2022-09-30T10:42:05;7.43;;;5.87;;
6376;SDS011;3221;48.858;10.128;2022-09-30T10:44:46;7.90;;;5.93;;
6376;SDS011;3221;48.858;10.128;2022-09-30T10:47:19;8.20;;;6.00;;
6376;SDS011;3221;48.858;10.128;2022-09-30T10:49:55;7.63;;;5.90;;
6376;SDS011;3221;48.858;10.128;2022-09-30T10:52:27;9.20;;;6.73;;
6376;SDS011;3221;48.858;10.128;2022-09-30T10:54:58;6.97;;;5.43;;
6376;SDS011;3221;48.858;10.128;2022-09-30T10:57:35;7.60;;;5.67;;
6376;SDS011;3221;48.858;10.128;2022-09-30T11:02:50;8.37;;;6.27;;
6376;SDS011;3221;48.858;10.128;2022-09-30T11:05:21;8.63;;;6.00;;
6376;SDS011;3221;48.858;10.128;2022-09-30T11:10:32;7.63;;;5.53;;
6376;SDS011;3221;48.858;10.128;2022-09-30T11:15:47;6.47;;;5.23;;
6376;SDS011;3221;48.858;10.128;2022-09-30T11:24:43;8.93;;;7.00;;
6376;SDS011;3221;48.858;10.128;2022-09-30T11:27:19;8.97;;;6.80;;
6376;SDS011;3221;48.858;10.128;2022-09-30T11:30:12;8.70;;;6.57;;
6376;SDS011;3221;48.858;10.128;2022-09-30T11:33:05;10.60;;;7.13;;
6376;SDS011;3221;48.858;10.128;2022-09-30T11:36:02;8.47;;;6.67;;
6376;SDS011;3221;48.858;10.128;2022-09-30T11:39:39;7.87;;;6.27;;
6376;SDS011;3221;48.858;10.128;2022-09-30T11:42:00;7.83;;;6.10;;
6376;SDS011;3221;48.858;10.128;2022-09-30T11:44:43;7.90;;;6.33;;
6376;SDS011;3221;48.858;10.128;2022-09-30T11:58:23;6.67;;;5.73;;
6376;SDS011;3221;48.858;10.128;2022-09-30T12:01:12;6.83;;;5.73;;
6376;SDS011;3221;48.858;10.128;2022-09-30T12:04:05;6.50;;;5.60;;
6376;SDS011;3221;48.858;10.128;2022-09-30T12:06:48;7.77;;;5.50;;
6376;SDS011;3221;48.858;10.128;2022-09-30T12:09:29;6.37;;;4.73;;
6376;SDS011;3221;48.858;10.128;2022-09-30T12:12:09;5.83;;;4.87;;
6376;SDS011;3221;48.858;10.128;2022-09-30T12:15:16;6.00;;;4.60;;
6376;SDS011;3221;48.858;10.128;2022-09-30T12:17:43;7.23;;;4.53;;
6376;SDS011;3221;48.858;10.128;2022-09-30T12:25:45;5.53;;;4.70;;
6376;SDS011;3221;48.858;10.128;2022-09-30T12:28:26;7.50;;;5.53;;
6376;SDS011;3221;48.858;10.128;2022-09-30T12:31:25;8.63;;;6.50;;
6376;SDS011;3221;48.858;10.128;2022-09-30T12:37:26;8.03;;;6.07;;
6376;SDS011;3221;48.858;10.128;2022-09-30T12:49:02;7.87;;;5.20;;
6376;SDS011;3221;48.858;10.128;2022-09-30T12:51:32;7.33;;;5.53;;
6376;SDS011;3221;48.858;10.128;2022-09-30T12:54:13;5.60;;;5.00;;
6376;SDS011;3221;48.858;10.128;2022-09-30T12:56:51;6.50;;;5.23;;
6376;SDS011;3221;48.858;10.128;2022-09-30T12:59:25;5.53;;;4.70;;
6376;SDS011;3221;48.858;10.128;2022-09-30T13:01:55;6.67;;;4.80;;
6376;SDS011;3221;48.858;10.128;2022-09-30T13:04:34;5.03;;;4.40;;
6376;SDS011;3221;48.858;10.128;2022-09-30T13:12:24;5.07;;;3.83;;
6376;SDS011;3221;48.858;10.128;2022-09-30T13:20:53;3.53;;;3.23;;
6376;SDS011;3221;48.858;10.128;2022-09-30T13:28:48;4.03;;;3.40;;
6376;SDS011;3221;48.858;10.128;2022-09-30T13:31:26;3.67;;;3.37;;
6376;SDS011;3221;48.858;10.128;2022-09-30T13:36:30;3.70;;;3.30;;
6376;SDS011;3221;48.858;10.128;2022-09-30T13:42:03;4.10;;;3.43;;
6376;SDS011;3221;48.858;10.128;2022-09-30T13:47:28;4.30;;;3.43;;
6376;SDS011;3221;48.858;10.128;2022-09-30T13:50:03;3.60;;;3.07;;
6376;SDS011;3221;48.858;10.128;2022-09-30T13:52:53;3.97;;;3.17;;
6376;SDS011;3221;48.858;10.128;2022-09-30T13:55:25;3.77;;;3.33;;
6376;SDS011;3221;48.858;10.128;2022-09-30T13:58:43;4.23;;;3.10;;
6376;SDS011;3221;48.858;10.128;2022-09-30T14:07:03;3.47;;;3.07;;
6376;SDS011;3221;48.858;10.128;2022-09-30T14:23:13;3.43;;;3.13;;
6376;SDS011;3221;48.858;10.128;2022-09-30T14:25:49;3.60;;;3.30;;
6376;SDS011;3221;48.858;10.128;2022-09-30T14:28:44;3.50;;;3.20;;
6376;SDS011;3221;48.858;10.128;2022-09-30T14:31:13;3.80;;;3.10;;
6376;SDS011;3221;48.858;10.128;2022-09-30T14:33:41;4.40;;;3.63;;
6376;SDS011;3221;48.858;10.128;2022-09-30T14:36:13;4.20;;;3.10;;
6376;SDS011;3221;48.858;10.128;2022-09-30T14:38:43;6.67;;;4.10;;
6376;SDS011;3221;48.858;10.128;2022-09-30T14:41:15;5.33;;;3.93;;
6376;SDS011;3221;48.858;10.128;2022-09-30T14:43:48;4.80;;;3.70;;
6376;SDS011;3221;48.858;10.128;2022-09-30T14:48:52;3.73;;;3.43;;
6376;SDS011;3221;48.858;10.128;2022-09-30T14:51:21;5.63;;;3.37;;
6376;SDS011;3221;48.858;10.128;2022-09-30T14:53:59;4.40;;;3.30;;
6376;SDS011;3221;48.858;10.128;2022-09-30T14:56:28;4.10;;;3.50;;
6376;SDS011;3221;48.858;10.128;2022-09-30T14:59:14;4.27;;;2.93;;
6376;SDS011;3221;48.858;10.128;2022-09-30T15:01:50;3.47;;;3.10;;
6376;SDS011;3221;48.858;10.128;2022-09-30T15:04:23;4.33;;;3.43;;
6376;SDS011;3221;48.858;10.128;2022-09-30T15:06:59;5.03;;;3.10;;
6376;SDS011;3221;48.858;10.128;2022-09-30T15:09:35;3.50;;;3.00;;
6376;SDS011;3221;48.858;10.128;2022-09-30T15:12:03;4.17;;;3.17;;
6376;SDS011;3221;48.858;10.128;2022-09-30T15:14:32;4.23;;;3.20;;
6376;SDS011;3221;48.858;10.128;2022-09-30T15:16:59;4.20;;;3.43;;
6376;SDS011;3221;48.858;10.128;2022-09-30T15:19:32;5.13;;;2.90;;
6376;SDS011;3221;48.858;10.128;2022-09-30T15:22:03;3.70;;;3.10;;
6376;SDS011;3221;48.858;10.128;2022-09-30T15:24:34;4.67;;;3.10;;
6376;SDS011;3221;48.858;10.128;2022-09-30T15:27:02;4.30;;;2.83;;
6376;SDS011;3221;48.858;10.128;2022-09-30T15:29:30;3.23;;;2.93;;
6376;SDS011;3221;48.858;10.128;2022-09-30T15:31:58;4.77;;;3.10;;
6376;SDS011;3221;48.858;10.128;2022-09-30T15:34:46;3.20;;;2.90;;
6376;SDS011;3221;48.858;10.128;2022-09-30T15:37:18;3.07;;;2.77;;
6376;SDS011;3221;48.858;10.128;2022-09-30T15:39:48;3.90;;;3.30;;
6376;SDS011;3221;48.858;10.128;2022-09-30T15:42:35;4.43;;;3.37;;
6376;SDS011;3221;48.858;10.128;2022-09-30T15:45:26;6.37;;;3.63;;
6376;SDS011;3221;48.858;10.128;2022-09-30T15:48:05;3.97;;;3.03;;
6376;SDS011;3221;48.858;10.128;2022-09-30T15:50:54;4.30;;;3.33;;
6376;SDS011;3221;48.858;10.128;2022-09-30T15:53:23;4.10;;;3.10;;
6376;SDS011;3221;48.858;10.128;2022-09-30T15:56:43;3.40;;;3.10;;
6376;SDS011;3221;48.858;10.128;2022-09-30T15:59:01;3.77;;;2.93;;
6376;SDS011;3221;48.858;10.128;2022-09-30T16:01:40;3.70;;;3.03;;
6376;SDS011;3221;48.858;10.128;2022-09-30T16:04:10;5.53;;;2.70;;
6376;SDS011;3221;48.858;10.128;2022-09-30T16:06:50;4.67;;;3.20;;
6376;SDS011;3221;48.858;10.128;2022-09-30T16:09:33;3.93;;;2.80;;
6376;SDS011;3221;48.858;10.128;2022-09-30T16:12:14;4.43;;;3.07;;
6376;SDS011;3221;48.858;10.128;2022-09-30T16:15:07;5.47;;;3.17;;
6376;SDS011;3221;48.858;10.128;2022-09-30T16:20:04;3.70;;;3.20;;
6376;SDS011;3221;48.858;10.128;2022-09-30T16:25:18;3.20;;;2.83;;
6376;SDS011;3221;48.858;10.128;2022-09-30T16:27:52;2.97;;;2.70;;
6376;SDS011;3221;48.858;10.128;2022-09-30T16:30:26;3.10;;;2.40;;
6376;SDS011;3221;48.858;10.128;2022-09-30T16:33:01;3.00;;;2.70;;
6376;SDS011;3221;48.858;10.128;2022-09-30T16:35:30;3.80;;;2.77;;
6376;SDS011;3221;48.858;10.128;2022-09-30T16:38:02;3.63;;;2.83;;
6376;SDS011;3221;48.858;10.128;2022-09-30T16:40:32;2.67;;;2.47;;
6376;SDS011;3221;48.858;10.128;2022-09-30T16:43:04;3.67;;;2.80;;
6376;SDS011;3221;48.858;10.128;2022-09-30T16:45:35;3.47;;;2.67;;
6376;SDS011;3221;48.858;10.128;2022-09-30T16:48:10;3.43;;;2.80;;
6376;SDS011;3221;48.858;10.128;2022-09-30T16:50:40;3.00;;;2.50;;
6376;SDS011;3221;48.858;10.128;2022-09-30T16:53:13;3.80;;;2.63;;
6376;SDS011;3221;48.858;10.128;2022-09-30T16:55:47;3.90;;;2.87;;
6376;SDS011;3221;48.858;10.128;2022-09-30T16:58:13;3.70;;;2.83;;
6376;SDS011;3221;48.858;10.128;2022-09-30T17:00:41;6.23;;;2.90;;
6376;SDS011;3221;48.858;10.128;2022-09-30T17:03:13;3.60;;;3.00;;
6376;SDS011;3221;48.858;10.128;2022-09-30T17:05:42;3.47;;;3.17;;
6376;SDS011;3221;48.858;10.128;2022-09-30T17:08:11;5.53;;;3.10;;
6376;SDS011;3221;48.858;10.128;2022-09-30T17:10:39;6.03;;;3.27;;
6376;SDS011;3221;48.858;10.128;2022-09-30T17:13:08;3.53;;;2.90;;
6376;SDS011;3221;48.858;10.128;2022-09-30T17:15:35;6.37;;;3.20;;
6376;SDS011;3221;48.858;10.128;2022-09-30T17:18:03;4.23;;;3.07;;
6376;SDS011;3221;48.858;10.128;2022-09-30T17:20:32;3.20;;;2.90;;
6376;SDS011;3221;48.858;10.128;2022-09-30T17:23:00;4.13;;;2.97;;
6376;SDS011;3221;48.858;10.128;2022-09-30T17:25:32;3.93;;;3.30;;
6376;SDS011;3221;48.858;10.128;2022-09-30T17:28:00;3.50;;;2.70;;
6376;SDS011;3221;48.858;10.128;2022-09-30T17:30:27;3.20;;;2.87;;
6376;SDS011;3221;48.858;10.128;2022-09-30T17:32:54;4.23;;;2.70;;
6376;SDS011;3221;48.858;10.128;2022-09-30T17:35:20;3.23;;;2.93;;
6376;SDS011;3221;48.858;10.128;2022-09-30T17:37:47;3.63;;;3.03;;
6376;SDS011;3221;48.858;10.128;2022-09-30T17:40:14;4.13;;;3.50;;
6376;SDS011;3221;48.858;10.128;2022-09-30T17:43:00;5.83;;;4.13;;
6376;SDS011;3221;48.858;10.128;2022-09-30T17:45:33;9.17;;;5.57;;
6376;SDS011;3221;48.858;10.128;2022-09-30T17:48:00;6.30;;;5.17;;
6376;SDS011;3221;48.858;10.128;2022-09-30T17:50:29;8.83;;;5.53;;
6376;SDS011;3221;48.858;10.128;2022-09-30T17:52:59;8.57;;;6.33;;
6376;SDS011;3221;48.858;10.128;2022-09-30T17:55:33;9.10;;;6.87;;
6376;SDS011;3221;48.858;10.128;2022-09-30T17:58:00;11.43;;;7.57;;
6376;SDS011;3221;48.858;10.128;2022-09-30T18:00:30;10.53;;;7.50;;
6376;SDS011;3221;48.858;10.128;2022-09-30T18:02:57;9.53;;;7.83;;
6376;SDS011;3221;48.858;10.128;2022-09-30T18:05:24;10.30;;;7.67;;
6376;SDS011;3221;48.858;10.128;2022-09-30T18:07:52;10.80;;;8.00;;
6376;SDS011;3221;48.858;10.128;2022-09-30T18:10:19;11.10;;;8.30;;
6376;SDS011;3221;48.858;10.128;2022-09-30T18:12:46;10.53;;;8.17;;
6376;SDS011;3221;48.858;10.128;2022-09-30T18:15:14;11.47;;;8.33;;
6376;SDS011;3221;48.858;10.128;2022-09-30T18:17:42;12.37;;;8.70;;
6376;SDS011;3221;48.858;10.128;2022-09-30T18:20:09;11.50;;;8.67;;
6376;SDS011;3221;48.858;10.128;2022-09-30T18:22:36;12.23;;;9.67;;
6376;SDS011;3221;48.858;10.128;2022-09-30T18:25:03;10.93;;;8.90;;
6376;SDS011;3221;48.858;10.128;2022-09-30T18:27:46;12.63;;;9.27;;
6376;SDS011;3221;48.858;10.128;2022-09-30T18:30:22;14.57;;;8.90;;
6376;SDS011;3221;48.858;10.128;2022-09-30T18:32:51;13.23;;;9.20;;
6376;SDS011;3221;48.858;10.128;2022-09-30T18:35:19;11.53;;;8.87;;
6376;SDS011;3221;48.858;10.128;2022-09-30T18:37:49;11.33;;;9.07;;
6376;SDS011;3221;48.858;10.128;2022-09-30T18:40:22;13.17;;;9.60;;
6376;SDS011;3221;48.858;10.128;2022-09-30T18:42:58;12.03;;;9.20;;
6376;SDS011;3221;48.858;10.128;2022-09-30T18:45:28;12.50;;;8.97;;
6376;SDS011;3221;48.858;10.128;2022-09-30T18:47:57;13.13;;;9.30;;
6376;SDS011;3221;48.858;10.128;2022-09-30T18:50:26;11.60;;;8.83;;
6376;SDS011;3221;48.858;10.128;2022-09-30T18:52:55;10.73;;;8.40;;
6376;SDS011;3221;48.858;10.128;2022-09-30T18:55:23;9.93;;;8.30;;
6376;SDS011;3221;48.858;10.128;2022-09-30T18:57:53;9.40;;;7.53;;
6376;SDS011;3221;48.858;10.128;2022-09-30T19:00:20;10.90;;;8.67;;
6376;SDS011;3221;48.858;10.128;2022-09-30T19:02:51;9.43;;;7.53;;
6376;SDS011;3221;48.858;10.128;2022-09-30T19:05:20;9.57;;;7.77;;
6376;SDS011;3221;48.858;10.128;2022-09-30T19:08:01;9.77;;;7.60;;
6376;SDS011;3221;48.858;10.128;2022-09-30T19:10:28;8.37;;;7.00;;
6376;SDS011;3221;48.858;10.128;2022-09-30T19:13:04;10.63;;;6.93;;
6376;SDS011;3221;48.858;10.128;2022-09-30T19:15:35;8.33;;;6.23;;
6376;SDS011;3221;48.858;10.128;2022-09-30T19:18:07;8.07;;;6.47;;
6376;SDS011;3221;48.858;10.128;2022-09-30T19:20:43;9.13;;;6.00;;
6376;SDS011;3221;48.858;10.128;2022-09-30T19:23:10;8.23;;;6.40;;
6376;SDS011;3221;48.858;10.128;2022-09-30T19:25:37;7.23;;;5.63;;
6376;SDS011;3221;48.858;10.128;2022-09-30T19:28:10;7.00;;;5.87;;
6376;SDS011;3221;48.858;10.128;2022-09-30T19:30:37;7.80;;;4.90;;
6376;SDS011;3221;48.858;10.128;2022-09-30T19:33:09;6.00;;;5.40;;
6376;SDS011;3221;48.858;10.128;2022-09-30T19:35:36;6.53;;;5.27;;
6376;SDS011;3221;48.858;10.128;2022-09-30T19:38:06;5.87;;;5.07;;
6376;SDS011;3221;48.858;10.128;2022-09-30T19:40:33;6.73;;;5.37;;
6376;SDS011;3221;48.858;10.128;2022-09-30T19:43:00;8.50;;;5.80;;
6376;SDS011;3221;48.858;10.128;2022-09-30T19:45:30;7.07;;;6.00;;
6376;SDS011;3221;48.858;10.128;2022-09-30T19:48:09;6.33;;;5.60;;
6376;SDS011;3221;48.858;10.128;2022-09-30T19:50:40;8.10;;;5.83;;
6376;SDS011;3221;48.858;10.128;2022-09-30T19:53:07;6.77;;;5.33;;
6376;SDS011;3221;48.858;10.128;2022-09-30T19:55:41;6.93;;;5.33;;
6376;SDS011;3221;48.858;10.128;2022-09-30T19:58:16;7.20;;;5.37;;